Time;durP1;ratioP1;P1;durP2;ratioP2;P2;SDS_P1;SDS_P2;PMS_P1;PMS_P2;Temp;Humidity;BMP_temperature;BMP_pressure;BME280_temperature;BME280_humidity;BME280_pressure;Samples;Min_cycle;Max_cycle;Signal;HPM_P1;HPM_P2
2021/06/16 00:05:30;;;;;;;;;20.67;19.00;;;;;;;;8821426;40;10008;-59
2021/06/16 00:11:34;;;;;;;;;14.67;14.33;;;;;;;;8823028;40;9867;-59
2021/06/16 00:17:36;;;;;;;;;22.67;19.33;;;;;;;;8821722;40;9930;-60
2021/06/16 00:23:38;;;;;;;;;16.33;16.00;;;;;;;;8822261;40;9898;-59
2021/06/16 00:29:40;;;;;;;;;16.00;15.00;;;;;;;;8821070;40;9895;-60
2021/06/16 00:35:42;;;;;;;;;16.33;13.67;;;;;;;;8821506;40;9899;-59
2021/06/16 00:41:45;;;;;;;;;21.67;19.33;;;;;;;;8821885;40;9962;-59
2021/06/16 00:47:48;;;;;;;;;13.33;12.67;;;;;;;;8821711;40;9899;-60
2021/06/16 00:53:50;;;;;;;;;16.67;16.67;;;;;;;;8821523;40;9987;-59
2021/06/16 01:00:07;;;;;;;;;16.00;16.00;;;;;;;;8812819;40;10289;-60
2021/06/16 01:06:26;;;;;;;;;14.67;14.00;;;;;;;;8821314;40;9943;-60
2021/06/16 01:12:28;;;;;;;;;8.33;8.33;;;;;;;;8822433;40;9875;-60
2021/06/16 01:18:37;;;;;;;;;17.00;15.00;;;;;;;;8821455;40;10495;-59
2021/06/16 01:24:45;;;;;;;;;15.00;14.00;;;;;;;;8822280;40;9898;-59
2021/06/16 01:30:49;;;;;;;;;14.33;13.33;;;;;;;;8818409;40;9870;-58
2021/06/16 01:36:53;;;;;;;;;16.00;16.00;;;;;;;;8820440;40;9852;-59
2021/06/16 01:42:57;;;;;;;;;15.33;14.33;;;;;;;;8824065;40;9959;-58
2021/06/16 01:48:59;;;;;;;;;16.33;14.67;;;;;;;;8824545;40;9986;-60
2021/06/16 01:55:01;;;;;;;;;15.33;13.67;;;;;;;;8823808;40;10086;-58
2021/06/16 02:01:05;;;;;;;;;12.67;11.67;;;;;;;;8823874;40;9950;-60
2021/06/16 02:07:12;;;;;;;;;12.00;12.00;;;;;;;;8824593;40;10141;-60
2021/06/16 02:13:20;;;;;;;;;11.67;10.33;;;;;;;;8824151;40;10221;-60
2021/06/16 02:19:27;;;;;;;;;14.67;12.67;;;;;;;;8823533;40;10107;-60
2021/06/16 02:25:30;;;;;;;;;18.00;16.00;;;;;;;;8823737;40;10502;-60
2021/06/16 02:31:32;;;;;;;;;10.00;10.00;;;;;;;;8824311;40;10073;-59
2021/06/16 02:37:42;;;;;;;;;13.00;12.00;;;;;;;;8825282;40;10720;-60
2021/06/16 02:43:44;;;;;;;;;11.33;10.67;;;;;;;;8823202;40;9891;-59
2021/06/16 02:49:58;;;;;;;;;11.33;9.67;;;;;;;;8823203;40;9934;-59
2021/06/16 02:56:02;;;;;;;;;8.00;8.00;;;;;;;;8824754;40;10263;-59
2021/06/16 03:02:05;;;;;;;;;8.00;8.00;;;;;;;;8822992;40;10116;-59
2021/06/16 03:08:08;;;;;;;;;9.67;9.67;;;;;;;;8823221;40;10703;-58
2021/06/16 03:14:10;;;;;;;;;9.33;8.00;;;;;;;;8824106;40;10602;-60
2021/06/16 03:20:16;;;;;;;;;8.33;7.33;;;;;;;;8823694;40;10106;-60
2021/06/16 03:26:18;;;;;;;;;9.33;9.00;;;;;;;;8823252;40;10392;-59
2021/06/16 03:32:23;;;;;;;;;8.00;8.00;;;;;;;;8822911;40;9860;-61
2021/06/16 03:38:26;;;;;;;;;7.25;7.25;;;;;;;;8823476;40;11163;-59
2021/06/16 03:44:30;;;;;;;;;10.00;10.00;;;;;;;;8823967;40;11387;-60
2021/06/16 03:50:33;;;;;;;;;10.00;10.00;;;;;;;;8823832;40;10384;-60
2021/06/16 03:56:37;;;;;;;;;9.00;9.00;;;;;;;;8823027;40;10648;-58
2021/06/16 04:02:42;;;;;;;;;10.50;9.50;;;;;;;;9916056;23;10720;-57
2021/06/16 04:08:44;;;;;;;;;12.00;10.50;;;;;;;;8840699;40;10866;-58
2021/06/16 04:14:47;;;;;;;;;8.50;8.50;;;;;;;;8842554;40;10649;-58
2021/06/16 04:20:49;;;;;;;;;11.50;11.00;;;;;;;;8837173;40;10714;-59
2021/06/16 04:26:51;;;;;;;;;12.67;12.33;;;;;;;;8848627;40;10738;-57
2021/06/16 04:32:54;;;;;;;;;11.00;11.00;;;;;;;;8828363;40;10419;-59
2021/06/16 04:38:56;;;;;;;;;11.25;11.25;;;;;;;;8849409;40;10814;-59
2021/06/16 04:44:58;;;;;;;;;14.00;12.33;;;;;;;;8846798;40;10625;-58
2021/06/16 04:51:01;;;;;;;;;12.33;12.33;;;;;;;;8839549;40;10406;-58
2021/06/16 04:57:04;;;;;;;;;14.50;11.75;;;;;;;;8840920;40;10520;-59
2021/06/16 05:03:06;;;;;;;;;12.00;12.00;;;;;;;;8834234;40;10533;-59
2021/06/16 05:09:08;;;;;;;;;10.25;9.75;;;;;;;;8843688;40;10507;-57
2021/06/16 05:15:15;;;;;;;;;19.50;15.50;;;;;;;;8850283;40;10902;-58
2021/06/16 05:21:17;;;;;;;;;9.75;9.00;;;;;;;;8835287;40;11258;-58
2021/06/16 05:27:19;;;;;;;;;8.75;8.75;;;;;;;;8851192;40;10534;-59
2021/06/16 05:33:21;;;;;;;;;10.75;10.25;;;;;;;;8859233;40;10490;-59
2021/06/16 05:39:23;;;;;;;;;12.00;11.25;;;;;;;;8873185;40;10774;-59
2021/06/16 05:45:25;;;;;;;;;14.50;12.50;;;;;;;;8851081;40;10589;-59
2021/06/16 05:51:27;;;;;;;;;13.25;12.00;;;;;;;;8852394;40;10846;-58
2021/06/16 05:57:29;;;;;;;;;9.50;9.50;;;;;;;;8852119;40;10255;-59
2021/06/16 06:03:31;;;;;;;;;12.50;12.50;;;;;;;;8851455;40;10326;-58
2021/06/16 06:09:33;;;;;;;;;9.75;9.75;;;;;;;;8848648;40;10312;-59
2021/06/16 06:15:35;;;;;;;;;12.75;11.75;;;;;;;;8848493;40;10604;-60
2021/06/16 06:21:37;;;;;;;;;8.50;8.50;;;;;;;;8850183;40;10302;-58
2021/06/16 06:27:39;;;;;;;;;9.50;8.75;;;;;;;;8838483;40;10799;-57
2021/06/16 06:33:41;;;;;;;;;9.75;9.75;;;;;;;;8839598;40;10429;-57
2021/06/16 06:39:43;;;;;;;;;10.75;10.75;;;;;;;;8824574;40;10265;-59
2021/06/16 06:45:45;;;;;;;;;10.50;10.50;;;;;;;;8849282;40;10391;-58
2021/06/16 06:51:47;;;;;;;;;12.50;11.00;;;;;;;;8838276;40;10419;-60
2021/06/16 06:57:49;;;;;;;;;9.00;9.00;;;;;;;;8823233;40;10578;-59
2021/06/16 07:03:51;;;;;;;;;11.50;11.50;;;;;;;;8823421;40;10407;-59
2021/06/16 07:09:53;;;;;;;;;11.75;11.75;;;;;;;;8828647;40;11050;-57
2021/06/16 07:15:55;;;;;;;;;10.50;10.50;;;;;;;;8838370;40;10353;-59
2021/06/16 07:21:57;;;;;;;;;10.75;9.25;;;;;;;;8843995;40;10298;-58
2021/06/16 07:27:59;;;;;;;;;12.50;10.00;;;;;;;;8837600;40;10369;-59
2021/06/16 07:34:01;;;;;;;;;10.25;9.75;;;;;;;;8845912;40;10266;-59
2021/06/16 07:40:08;;;;;;;;;12.25;12.25;;;;;;;;8847530;40;10534;-62
2021/06/16 07:46:10;;;;;;;;;12.00;10.00;;;;;;;;8847472;40;10370;-60
2021/06/16 07:52:12;;;;;;;;;11.25;11.25;;;;;;;;8844009;40;10613;-60
2021/06/16 07:58:14;;;;;;;;;10.00;10.00;;;;;;;;8840147;40;10369;-59
2021/06/16 08:04:19;;;;;;;;;9.00;9.00;;;;;;;;8844108;40;10391;-59
2021/06/16 08:10:21;;;;;;;;;10.00;9.00;;;;;;;;8841912;40;10376;-60
2021/06/16 08:16:23;;;;;;;;;8.00;6.50;;;;;;;;8841638;40;10226;-59
2021/06/16 08:22:25;;;;;;;;;12.75;11.50;;;;;;;;8844260;40;11516;-60
2021/06/16 08:28:27;;;;;;;;;6.50;5.25;;;;;;;;8844960;40;10300;-59
2021/06/16 08:34:29;;;;;;;;;9.50;9.50;;;;;;;;8834940;40;10429;-59
2021/06/16 08:40:31;;;;;;;;;9.75;9.75;;;;;;;;8841958;40;10829;-59
2021/06/16 08:46:34;;;;;;;;;9.75;9.75;;;;;;;;8842317;40;10320;-60
2021/06/16 08:52:37;;;;;;;;;8.25;6.75;;;;;;;;8845064;40;10271;-58
2021/06/16 08:58:40;;;;;;;;;12.50;12.00;;;;;;;;8849096;40;10353;-60
2021/06/16 09:04:51;;;;;;;;;9.00;9.00;;;;;;;;8846690;40;10874;-58
2021/06/16 09:10:53;;;;;;;;;12.00;10.00;;;;;;;;8833095;40;10551;-59
2021/06/16 09:17:01;;;;;;;;;10.50;7.75;;;;;;;;8834923;40;10319;-61
2021/06/16 09:23:12;;;;;;;;;8.75;7.75;;;;;;;;8845317;40;10346;-59
2021/06/16 09:29:14;;;;;;;;;15.25;14.00;;;;;;;;8835321;40;10360;-58
2021/06/16 09:35:25;;;;;;;;;12.50;12.50;;;;;;;;8848222;40;10391;-60
2021/06/16 09:41:27;;;;;;;;;11.50;10.75;;;;;;;;8848967;40;10449;-60
2021/06/16 09:47:30;;;;;;;;;12.00;12.00;;;;;;;;8837064;40;10464;-58
2021/06/16 09:53:32;;;;;;;;;12.50;12.00;;;;;;;;8845850;40;10560;-58
2021/06/16 09:59:36;;;;;;;;;12.25;9.25;;;;;;;;8846976;40;10333;-59
2021/06/16 10:06:03;;;;;;;;;12.00;9.50;;;;;;;;8843871;40;10900;-59
2021/06/16 10:12:06;;;;;;;;;12.50;12.50;;;;;;;;8839065;40;10361;-60
2021/06/16 10:18:08;;;;;;;;;11.25;11.25;;;;;;;;8842129;40;10328;-59
2021/06/16 10:24:12;;;;;;;;;12.50;12.50;;;;;;;;8843584;40;10330;-59
2021/06/16 10:30:20;;;;;;;;;14.50;12.50;;;;;;;;8839482;40;10480;-62
2021/06/16 10:36:22;;;;;;;;;14.50;14.50;;;;;;;;8847794;40;10525;-59
2021/06/16 10:42:24;;;;;;;;;33.25;29.75;;;;;;;;8848350;40;11011;-59
2021/06/16 10:48:51;;;;;;;;;17.00;16.25;;;;;;;;8847989;40;10673;-58
2021/06/16 10:54:53;;;;;;;;;16.75;14.75;;;;;;;;8829306;40;10383;-60
2021/06/16 11:01:16;;;;;;;;;28.75;22.00;;;;;;;;8833470;40;10374;-62
2021/06/16 11:07:30;;;;;;;;;15.50;13.50;;;;;;;;8844148;40;10416;-61
2021/06/16 11:13:38;;;;;;;;;10.50;10.50;;;;;;;;8846104;40;10344;-59
2021/06/16 11:19:41;;;;;;;;;13.00;13.00;;;;;;;;8837609;40;10381;-60
2021/06/16 11:25:43;;;;;;;;;16.50;13.00;;;;;;;;8859608;40;10602;-60
2021/06/16 11:32:10;;;;;;;;;15.00;15.00;;;;;;;;8842783;40;10426;-60
2021/06/16 11:38:18;;;;;;;;;9.25;9.00;;;;;;;;8848563;40;10375;-59
2021/06/16 11:44:20;;;;;;;;;17.75;16.75;;;;;;;;8841515;40;10466;-60
2021/06/16 11:50:30;;;;;;;;;21.25;19.00;;;;;;;;8830986;40;10408;-59
2021/06/16 11:56:39;;;;;;;;;24.50;21.00;;;;;;;;8831973;40;10487;-59
2021/06/16 12:02:41;;;;;;;;;21.00;21.00;;;;;;;;8826766;40;10323;-61
2021/06/16 12:08:43;;;;;;;;;13.00;13.00;;;;;;;;8840064;40;10425;-61
2021/06/16 12:14:45;;;;;;;;;14.50;13.25;;;;;;;;8842928;40;10284;-60
2021/06/16 12:20:54;;;;;;;;;14.00;10.50;;;;;;;;8837384;40;10342;-60
2021/06/16 12:27:12;;;;;;;;;11.50;11.50;;;;;;;;8838914;40;10707;-61
2021/06/16 12:33:38;;;;;;;;;14.00;13.75;;;;;;;;8824819;40;10429;-60
2021/06/16 12:40:09;;;;;;;;;16.25;14.25;;;;;;;;8833042;40;10468;-59
2021/06/16 12:46:11;;;;;;;;;14.75;13.25;;;;;;;;8833877;40;10295;-60
2021/06/16 12:52:15;;;;;;;;;18.75;18.00;;;;;;;;8843713;40;10454;-57
2021/06/16 12:58:17;;;;;;;;;21.25;20.75;;;;;;;;8832538;40;10449;-60
2021/06/16 13:04:46;;;;;;;;;17.25;17.25;;;;;;;;8843982;40;10431;-60
2021/06/16 13:10:48;;;;;;;;;21.25;20.00;;;;;;;;8830829;40;10319;-59
2021/06/16 13:17:10;;;;;;;;;18.00;18.00;;;;;;;;8835706;40;10558;-59
2021/06/16 13:23:16;;;;;;;;;20.00;18.00;;;;;;;;8844380;40;11014;-58
2021/06/16 13:29:28;;;;;;;;;19.00;17.50;;;;;;;;8823518;40;10479;-59
2021/06/16 13:35:31;;;;;;;;;18.50;18.50;;;;;;;;8843194;40;10357;-59
2021/06/16 13:41:34;;;;;;;;;45.75;40.25;;;;;;;;8839821;40;10508;-58
2021/06/16 13:47:37;;;;;;;;;14.50;14.50;;;;;;;;8854225;40;10407;-59
2021/06/16 13:53:39;;;;;;;;;24.00;21.75;;;;;;;;8854043;40;11040;-60
2021/06/16 13:59:41;;;;;;;;;12.75;12.75;;;;;;;;8849339;40;10372;-59
2021/06/16 14:05:43;;;;;;;;;14.25;14.25;;;;;;;;8848549;40;10783;-60
2021/06/16 14:11:45;;;;;;;;;13.00;13.00;;;;;;;;8834795;40;10360;-62
2021/06/16 14:17:48;;;;;;;;;13.00;13.00;;;;;;;;8846103;40;10436;-61
2021/06/16 14:23:50;;;;;;;;;20.25;18.75;;;;;;;;8847677;40;10331;-63
2021/06/16 14:29:52;;;;;;;;;22.75;22.75;;;;;;;;8849168;40;10442;-59
2021/06/16 14:35:54;;;;;;;;;22.75;22.75;;;;;;;;8848904;40;10329;-61
2021/06/16 14:41:59;;;;;;;;;13.50;11.50;;;;;;;;8827493;40;10600;-60
2021/06/16 14:48:01;;;;;;;;;16.25;14.75;;;;;;;;8848622;40;10308;-63
2021/06/16 14:54:03;;;;;;;;;12.75;12.75;;;;;;;;8839388;40;10395;-61
2021/06/16 15:00:06;;;;;;;;;7.75;7.75;;;;;;;;8849519;40;10544;-61
2021/06/16 15:06:18;;;;;;;;;10.75;9.25;;;;;;;;8849791;40;10341;-61
2021/06/16 15:12:20;;;;;;;;;15.25;10.50;;;;;;;;8848517;40;10386;-61
2021/06/16 15:18:22;;;;;;;;;8.00;8.00;;;;;;;;8849061;40;10930;-61
2021/06/16 15:24:26;;;;;;;;;7.00;7.00;;;;;;;;8848456;40;10495;-61
2021/06/16 15:30:29;;;;;;;;;8.75;8.00;;;;;;;;8839100;40;10368;-60
2021/06/16 15:36:33;;;;;;;;;11.00;10.75;;;;;;;;8848884;40;10443;-60
2021/06/16 15:42:35;;;;;;;;;7.75;7.75;;;;;;;;8848533;40;10794;-61
2021/06/16 15:48:37;;;;;;;;;10.00;10.00;;;;;;;;8848485;40;10306;-61
2021/06/16 15:54:39;;;;;;;;;13.00;11.50;;;;;;;;8849210;40;10499;-60
2021/06/16 16:00:41;;;;;;;;;12.75;12.75;;;;;;;;8847484;40;10566;-60
2021/06/16 16:07:01;;;;;;;;;18.00;16.50;;;;;;;;8836062;40;10833;-60
2021/06/16 16:13:04;;;;;;;;;12.00;12.00;;;;;;;;8847129;40;10393;-61
2021/06/16 16:19:06;;;;;;;;;17.25;15.75;;;;;;;;8848302;40;10526;-60
2021/06/16 16:25:10;;;;;;;;;17.75;16.25;;;;;;;;8837424;40;10806;-59
2021/06/16 16:31:12;;;;;;;;;22.00;17.25;;;;;;;;8846915;40;10944;-59
2021/06/16 16:37:14;;;;;;;;;25.00;23.75;;;;;;;;8847176;40;10909;-59
2021/06/16 16:43:17;;;;;;;;;23.75;22.50;;;;;;;;8846800;40;10690;-60
2021/06/16 16:49:19;;;;;;;;;20.25;17.50;;;;;;;;8847444;40;11301;-59
2021/06/16 16:55:23;;;;;;;;;17.50;17.50;;;;;;;;8847213;40;10894;-62
2021/06/16 17:01:25;;;;;;;;;23.75;19.75;;;;;;;;8847112;40;10798;-60
2021/06/16 17:07:27;;;;;;;;;17.67;16.67;;;;;;;;8847348;40;10564;-59
2021/06/16 17:13:29;;;;;;;;;22.50;19.25;;;;;;;;8849631;40;10790;-57
2021/06/16 17:19:31;;;;;;;;;25.00;25.00;;;;;;;;8849599;40;10658;-59
2021/06/16 17:25:33;;;;;;;;;14.33;13.33;;;;;;;;8849794;40;10933;-59
2021/06/16 17:31:36;;;;;;;;;31.00;30.00;;;;;;;;8849265;40;9948;-59
2021/06/16 17:37:42;;;;;;;;;23.33;22.33;;;;;;;;8849478;40;10693;-57
2021/06/16 17:43:44;;;;;;;;;31.67;31.00;;;;;;;;8848423;40;9900;-59
2021/06/16 17:49:48;;;;;;;;;15.67;14.33;;;;;;;;8851034;40;9889;-62
2021/06/16 17:55:51;;;;;;;;;23.33;20.67;;;;;;;;8849832;40;10601;-59
2021/06/16 18:01:55;;;;;;;;;24.67;23.00;;;;;;;;8849209;40;10043;-58
2021/06/16 18:07:58;;;;;;;;;31.33;29.67;;;;;;;;8849922;40;9990;-63
2021/06/16 18:14:01;;;;;;;;;25.00;23.00;;;;;;;;8848190;40;9964;-58
2021/06/16 18:20:03;;;;;;;;;26.00;25.00;;;;;;;;8848470;40;9903;-60
2021/06/16 18:26:05;;;;;;;;;30.67;24.67;;;;;;;;8849875;40;9920;-60
2021/06/16 18:32:11;;;;;;;;;33.33;31.33;;;;;;;;8849186;40;10024;-59
2021/06/16 18:38:17;;;;;;;;;25.00;24.67;;;;;;;;8850056;40;10549;-59
2021/06/16 18:44:19;;;;;;;;;22.33;21.33;;;;;;;;8849395;40;9928;-59
2021/06/16 18:50:22;;;;;;;;;17.67;15.00;;;;;;;;8848740;40;10442;-60
2021/06/16 18:56:24;;;;;;;;;25.67;23.00;;;;;;;;8848143;40;10406;-59
2021/06/16 19:02:36;;;;;;;;;18.67;17.33;;;;;;;;8848678;40;10488;-58
2021/06/16 19:08:40;;;;;;;;;22.67;22.00;;;;;;;;8848175;40;9904;-58
2021/06/16 19:14:43;;;;;;;;;20.33;19.67;;;;;;;;8847883;40;9903;-60
2021/06/16 19:20:45;;;;;;;;;31.67;29.33;;;;;;;;8849136;40;10152;-61
2021/06/16 19:26:49;;;;;;;;;37.67;34.33;;;;;;;;8848232;40;10018;-59
2021/06/16 19:32:54;;;;;;;;;51.00;38.33;;;;;;;;8839260;40;9941;-59
2021/06/16 19:38:56;;;;;;;;;24.00;23.33;;;;;;;;8849089;40;10519;-59
2021/06/16 19:44:59;;;;;;;;;26.00;24.33;;;;;;;;8848278;40;10138;-59
2021/06/16 19:51:00;;;;;;;;;23.33;19.33;;;;;;;;8848344;40;10038;-58
2021/06/16 19:57:03;;;;;;;;;18.67;18.67;;;;;;;;8846443;40;10671;-59
2021/06/16 20:03:06;;;;;;;;;21.33;21.33;;;;;;;;8847981;40;9960;-59
2021/06/16 20:09:10;;;;;;;;;17.67;17.67;;;;;;;;8847230;40;9891;-58
2021/06/16 20:15:16;;;;;;;;;22.00;22.00;;;;;;;;8846966;40;9916;-58
2021/06/16 20:21:18;;;;;;;;;21.67;20.00;;;;;;;;8848086;40;10032;-59
2021/06/16 20:27:20;;;;;;;;;17.67;17.67;;;;;;;;8847274;40;10021;-61
2021/06/16 20:33:23;;;;;;;;;17.00;15.67;;;;;;;;8846572;40;10164;-59
2021/06/16 20:39:25;;;;;;;;;24.33;17.67;;;;;;;;8846744;40;9920;-59
2021/06/16 20:45:28;;;;;;;;;19.00;17.67;;;;;;;;8847194;40;10432;-59
2021/06/16 20:51:30;;;;;;;;;21.33;16.00;;;;;;;;8837335;40;10521;-58
2021/06/16 20:57:32;;;;;;;;;17.00;17.00;;;;;;;;8847414;40;9864;-58
2021/06/16 21:03:34;;;;;;;;;8.33;6.00;;;;;;;;8846870;40;9872;-59
2021/06/16 21:09:36;;;;;;;;;15.67;15.33;;;;;;;;8847569;40;10173;-58
2021/06/16 21:15:46;;;;;;;;;16.67;16.67;;;;;;;;8845299;40;10240;-59
2021/06/16 21:21:48;;;;;;;;;14.67;14.67;;;;;;;;8845780;40;10522;-58
2021/06/16 21:27:53;;;;;;;;;18.67;16.67;;;;;;;;8846445;40;9922;-59
2021/06/16 21:33:55;;;;;;;;;20.67;19.33;;;;;;;;8847190;40;10619;-59
2021/06/16 21:39:57;;;;;;;;;20.33;19.00;;;;;;;;8846657;40;9876;-58
2021/06/16 21:45:59;;;;;;;;;18.67;15.00;;;;;;;;8846033;40;9908;-60
2021/06/16 21:52:01;;;;;;;;;21.33;18.67;;;;;;;;8845421;40;9957;-59
2021/06/16 21:58:03;;;;;;;;;20.00;19.00;;;;;;;;8847105;40;9861;-58
2021/06/16 22:04:05;;;;;;;;;15.33;15.33;;;;;;;;8851004;40;10163;-59
2021/06/16 22:10:09;;;;;;;;;21.00;20.00;;;;;;;;8849326;40;10035;-59
2021/06/16 22:16:11;;;;;;;;;14.33;14.33;;;;;;;;8848544;40;10437;-58
2021/06/16 22:22:13;;;;;;;;;18.00;14.33;;;;;;;;8849504;40;10184;-59
2021/06/16 22:28:15;;;;;;;;;14.00;14.00;;;;;;;;8849356;40;10297;-58
2021/06/16 22:34:17;;;;;;;;;17.33;16.33;;;;;;;;8850170;40;11253;-59
2021/06/16 22:40:23;;;;;;;;;21.00;20.00;;;;;;;;8848519;40;10720;-57
2021/06/16 22:46:27;;;;;;;;;16.67;15.67;;;;;;;;8848242;40;9950;-58
2021/06/16 22:52:29;;;;;;;;;19.67;19.67;;;;;;;;8848257;40;10337;-59
2021/06/16 22:58:30;;;;;;;;;19.33;16.00;;;;;;;;8847437;40;10406;-58
2021/06/16 23:04:32;;;;;;;;;17.00;17.00;;;;;;;;8847796;40;9930;-58
2021/06/16 23:10:36;;;;;;;;;23.00;20.33;;;;;;;;8848734;40;10391;-58
2021/06/16 23:16:37;;;;;;;;;22.00;18.67;;;;;;;;8847893;40;10119;-58
2021/06/16 23:22:41;;;;;;;;;19.67;19.67;;;;;;;;8838658;40;9927;-59
2021/06/16 23:28:43;;;;;;;;;19.00;17.67;;;;;;;;8848682;40;9874;-59
2021/06/16 23:34:45;;;;;;;;;18.67;18.67;;;;;;;;8847947;40;9944;-59
2021/06/16 23:40:47;;;;;;;;;27.00;23.33;;;;;;;;8847976;40;9996;-59
2021/06/16 23:46:49;;;;;;;;;29.33;25.67;;;;;;;;8847710;40;9875;-59
2021/06/16 23:52:52;;;;;;;;;19.33;17.00;;;;;;;;8848230;40;9880;-58
2021/06/16 23:58:54;;;;;;;;;29.33;27.33;;;;;;;;8847099;40;9995;-58
